Time;durP1;ratioP1;P1;durP2;ratioP2;P2;SDS_P1;SDS_P2;PMS_P1;PMS_P2;Temp;Humidity;BMP_temperature;BMP_pressure;BME280_temperature;BME280_humidity;BME280_pressure;Samples;Min_cycle;Max_cycle;Signal;HPM_P1;HPM_P2
2023/09/18 00:01:12;;;;;;;5.78;2.97;;;;;;;22.93;61.29;99829.75;4142208;28;20485;-72
2023/09/18 00:03:15;;;;;;;5.03;2.63;;;;;;;22.89;61.36;99822.03;4138323;28;20045;-72
2023/09/18 00:05:18;;;;;;;4.00;3.00;;;;;;;22.87;61.52;99816.78;4140452;28;20448;-72
2023/09/18 00:07:21;;;;;;;6.05;2.75;;;;;;;22.79;62.08;99821.59;4144953;28;20096;-71
2023/09/18 00:09:23;;;;;;;4.50;2.80;;;;;;;22.71;62.27;99814.00;4140466;28;20057;-72
2023/09/18 00:11:26;;;;;;;4.43;3.10;;;;;;;22.74;61.55;99813.00;4144522;28;20504;-72
2023/09/18 00:13:29;;;;;;;5.13;2.92;;;;;;;22.81;61.02;99810.00;4144857;28;20045;-72
2023/09/18 00:15:32;;;;;;;5.45;2.80;;;;;;;22.78;60.97;99799.53;4144471;28;20129;-72
2023/09/18 00:17:37;;;;;;;4.28;2.85;;;;;;;22.75;61.72;99801.44;4145433;28;20489;-72
2023/09/18 00:19:39;;;;;;;4.68;2.58;;;;;;;22.83;60.77;99786.06;4145254;28;20477;-72
2023/09/18 00:21:42;;;;;;;6.72;3.20;;;;;;;22.82;60.91;99782.56;4144800;28;20049;-72
2023/09/18 00:23:46;;;;;;;6.45;2.58;;;;;;;22.79;60.68;99782.72;4127346;28;20113;-71
2023/09/18 00:25:48;;;;;;;3.63;2.60;;;;;;;22.79;60.41;99797.72;4140340;28;20116;-71
2023/09/18 00:27:51;;;;;;;4.65;2.22;;;;;;;22.80;60.55;99802.13;4145429;28;20084;-72
2023/09/18 00:29:54;;;;;;;8.32;3.00;;;;;;;22.76;60.82;99800.53;4123962;28;20129;-72
2023/09/18 00:31:57;;;;;;;8.25;3.42;;;;;;;22.84;60.56;99787.78;4123217;28;20047;-72
2023/09/18 00:34:01;;;;;;;5.90;2.60;;;;;;;22.80;60.42;99791.50;4125561;28;20120;-72
2023/09/18 00:36:04;;;;;;;5.70;2.60;;;;;;;22.82;60.11;99784.34;4127288;28;20149;-72
2023/09/18 00:38:07;;;;;;;4.35;2.70;;;;;;;22.81;60.22;99790.59;4124129;28;20038;-72
2023/09/18 00:40:11;;;;;;;4.13;2.72;;;;;;;22.84;59.89;99787.78;4126987;28;20089;-71
2023/09/18 00:42:16;;;;;;;3.63;2.30;;;;;;;22.87;59.67;99786.75;4127282;28;20529;-71
2023/09/18 00:44:19;;;;;;;4.07;2.60;;;;;;;22.86;59.94;99783.25;4126948;28;20042;-71
2023/09/18 00:46:22;;;;;;;4.93;2.55;;;;;;;22.97;59.14;99778.31;4127524;28;20043;-72
2023/09/18 00:48:25;;;;;;;5.30;2.25;;;;;;;22.94;59.25;99778.47;4123370;28;20042;-71
2023/09/18 00:50:30;;;;;;;4.88;2.50;;;;;;;22.91;59.62;99770.66;4159352;28;20061;-72
2023/09/18 00:52:33;;;;;;;;;;;;;;;22.79;59.54;99776.53;4111509;28;20051;-72
2023/09/18 00:54:38;;;;;;;4.60;2.90;;;;;;;22.84;59.24;99774.53;4160021;28;19927;-72
2023/09/18 00:56:41;;;;;;;9.00;2.70;;;;;;;22.83;59.39;99770.16;4125094;28;20050;-71
2023/09/18 00:58:46;;;;;;;4.47;2.80;;;;;;;22.90;59.04;99760.97;4121688;28;20039;-71
2023/09/18 01:00:51;;;;;;;5.80;2.35;;;;;;;22.99;58.60;99755.22;4125371;28;20117;-71
2023/09/18 01:02:54;;;;;;;5.20;2.42;;;;;;;22.91;58.98;99757.41;4159238;28;20056;-71
2023/09/18 01:04:57;;;;;;;2.85;2.55;;;;;;;22.86;59.14;99758.56;4126879;28;20090;-71
2023/09/18 01:07:22;;;;;;;9.18;2.70;;;;;;;22.92;58.95;99759.09;4148273;28;20034;-73
2023/09/18 01:09:25;;;;;;;3.97;3.08;;;;;;;22.88;59.15;99760.22;4144878;28;20104;-70
2023/09/18 01:11:37;;;;;;;4.15;2.72;;;;;;;22.83;59.32;99762.22;4147524;28;20069;-70
2023/09/18 01:13:49;;;;;;;4.05;2.40;;;;;;;22.83;59.46;99773.66;4145838;28;20088;-70
2023/09/18 01:15:56;;;;;;;4.90;2.60;;;;;;;22.82;59.60;99786.97;4145993;28;20050;-70
2023/09/18 01:18:00;;;;;;;4.55;2.85;;;;;;;22.84;59.30;99788.63;4146268;28;20038;-70
2023/09/18 01:20:05;;;;;;;5.10;2.65;;;;;;;22.97;58.94;99773.00;4146014;28;20129;-70
2023/09/18 01:22:10;;;;;;;4.75;2.58;;;;;;;22.94;58.69;99770.50;4143952;28;20064;-70
2023/09/18 01:24:15;;;;;;;3.75;2.58;;;;;;;22.97;58.64;99770.38;4143092;28;20065;-70
2023/09/18 01:26:18;;;;;;;4.68;2.65;;;;;;;22.97;58.68;99766.88;4141413;28;20121;-70
2023/09/18 01:28:21;;;;;;;3.08;2.35;;;;;;;22.98;58.64;99774.75;4141879;28;20590;-70
2023/09/18 01:30:24;;;;;;;3.05;2.50;;;;;;;23.00;58.65;99772.88;4142903;28;20069;-69
2023/09/18 01:32:30;;;;;;;5.05;2.97;;;;;;;23.01;58.70;99779.00;4146200;28;20079;-69
2023/09/18 01:34:36;;;;;;;4.22;2.35;;;;;;;23.02;58.60;99784.22;4142416;28;20593;-69
2023/09/18 01:36:39;;;;;;;7.22;2.85;;;;;;;23.06;58.52;99776.16;4144986;28;20053;-69
2023/09/18 01:38:43;;;;;;;5.85;2.40;;;;;;;23.04;59.03;99784.16;4140639;28;20038;-69
2023/09/18 01:40:50;;;;;;;5.75;2.08;;;;;;;23.00;58.90;99804.66;4144923;28;20126;-69
2023/09/18 01:42:53;;;;;;;3.85;2.72;;;;;;;22.94;59.33;99820.88;4146258;28;20038;-69
2023/09/18 01:44:55;;;;;;;4.90;2.63;;;;;;;22.89;59.62;99849.38;4147494;28;20030;-69
2023/09/18 01:47:00;;;;;;;4.55;2.55;;;;;;;22.76;60.38;99841.13;4141813;28;20038;-69
2023/09/18 01:49:03;;;;;;;4.75;2.75;;;;;;;22.76;60.50;99829.69;4138792;28;20102;-69
2023/09/18 01:51:07;;;;;;;8.35;3.30;;;;;;;22.83;60.67;99833.78;4137452;28;20432;-69
2023/09/18 01:53:09;;;;;;;4.82;2.97;;;;;;;22.80;61.32;99855.13;4141568;28;20172;-69
2023/09/18 01:55:14;;;;;;;;;;;;;;;22.72;62.17;99868.72;4140240;28;20049;-69
2023/09/18 01:57:18;;;;;;;8.93;3.40;;;;;;;22.88;62.22;99845.03;4140528;28;20324;-69
2023/09/18 01:59:22;;;;;;;7.45;3.72;;;;;;;22.80;63.32;99845.38;4142623;28;20054;-69
2023/09/18 02:01:26;;;;;;;8.88;4.03;;;;;;;22.65;64.04;99846.09;4143339;28;20038;-69
2023/09/18 02:03:30;;;;;;;10.40;3.70;;;;;;;22.59;63.55;99849.00;4140609;28;20037;-70
2023/09/18 02:05:56;;;;;;;6.20;3.35;;;;;;;22.51;64.80;99817.56;4159972;28;20041;-70
2023/09/18 02:08:01;;;;;;;10.10;3.92;;;;;;;22.49;65.37;99803.53;4153985;28;20037;-70
2023/09/18 02:10:05;;;;;;;9.57;3.75;;;;;;;22.29;66.33;99812.34;4140357;28;20034;-70
2023/09/18 02:12:08;;;;;;;8.23;3.30;;;;;;;22.25;67.03;99824.00;4138477;28;20089;-70
2023/09/18 02:14:12;;;;;;;7.13;3.38;;;;;;;22.17;67.53;99820.84;4137485;28;20437;-71
2023/09/18 02:16:14;;;;;;;6.85;3.53;;;;;;;22.05;68.75;99814.28;4142097;28;20052;-71
2023/09/18 02:18:17;;;;;;;7.63;3.92;;;;;;;22.04;68.29;99816.06;4141184;28;20509;-70
2023/09/18 02:20:20;;;;;;;5.30;3.38;;;;;;;22.03;68.61;99830.22;4145604;28;20512;-70
2023/09/18 02:22:23;;;;;;;9.15;3.63;;;;;;;22.05;68.41;99827.50;4142944;28;20046;-70
2023/09/18 02:24:26;;;;;;;7.22;3.38;;;;;;;22.05;68.66;99836.34;4143455;28;20482;-70
2023/09/18 02:26:30;;;;;;;6.90;3.05;;;;;;;22.06;68.91;99843.34;4143883;28;20100;-70
2023/09/18 02:28:32;;;;;;;7.90;3.53;;;;;;;22.06;68.85;99855.72;4142979;28;20037;-71
2023/09/18 02:30:36;;;;;;;5.95;3.50;;;;;;;22.05;69.21;99846.03;4139429;28;20045;-71
2023/09/18 02:32:38;;;;;;;4.50;3.05;;;;;;;21.99;69.18;99846.31;4144513;28;20324;-70
2023/09/18 02:34:41;;;;;;;5.50;3.47;;;;;;;21.95;69.35;99849.09;4140744;28;20038;-71
2023/09/18 02:36:44;;;;;;;9.68;3.40;;;;;;;21.96;69.30;99857.88;4142305;28;20038;-71
2023/09/18 02:38:47;;;;;;;4.78;3.17;;;;;;;21.90;69.78;99853.75;4139022;28;20073;-71
2023/09/18 02:40:49;;;;;;;7.72;3.30;;;;;;;21.86;70.26;99860.09;4137919;28;20048;-71
2023/09/18 02:42:52;;;;;;;6.22;3.30;;;;;;;21.87;70.43;99856.50;4144894;28;20096;-70
2023/09/18 02:44:55;;;;;;;5.88;2.92;;;;;;;21.84;70.46;99853.97;4141795;28;20030;-70
2023/09/18 02:46:59;;;;;;;5.15;2.92;;;;;;;21.86;70.60;99843.31;4141275;28;20199;-70
2023/09/18 02:49:02;;;;;;;9.38;4.00;;;;;;;21.90;70.33;99827.28;4159431;28;20041;-71
2023/09/18 02:51:06;;;;;;;5.43;3.20;;;;;;;21.86;70.61;99815.09;4142930;28;20033;-70
2023/09/18 02:53:17;;;;;;;4.57;3.33;;;;;;;21.74;71.13;99808.56;4148513;28;20045;-70
2023/09/18 02:55:20;;;;;;;7.63;3.50;;;;;;;21.74;71.35;99807.66;4140939;28;20041;-70
2023/09/18 02:57:23;;;;;;;6.47;3.65;;;;;;;21.75;71.19;99791.72;4155236;28;20052;-70
2023/09/18 02:59:26;;;;;;;4.30;3.10;;;;;;;21.74;71.32;99799.72;4127175;28;20050;-71
2023/09/18 03:01:29;;;;;;;5.68;3.67;;;;;;;21.68;71.77;99798.22;4156501;28;20048;-71
2023/09/18 03:03:33;;;;;;;6.82;3.65;;;;;;;21.76;71.82;99782.03;4140949;28;20503;-71
2023/09/18 03:05:36;;;;;;;4.40;3.22;;;;;;;21.70;71.26;99782.25;4142090;28;20292;-71
2023/09/18 03:07:39;;;;;;;4.55;3.40;;;;;;;21.67;71.47;99795.63;4139943;28;20042;-71
2023/09/18 03:09:43;;;;;;;6.28;3.53;;;;;;;21.76;71.10;99795.25;4142652;28;20030;-70
2023/09/18 03:11:44;;;;;;;13.50;4.03;;;;;;;21.72;70.99;99804.25;4140000;28;20029;-71
2023/09/18 03:13:48;;;;;;;7.53;3.83;;;;;;;21.77;70.50;99789.91;4142122;28;20069;-71
2023/09/18 03:15:53;;;;;;;7.97;3.88;;;;;;;21.64;70.39;99786.06;4139338;28;20084;-71
2023/09/18 03:17:56;;;;;;;7.53;4.43;;;;;;;21.64;70.62;99785.19;4140192;28;20105;-70
2023/09/18 03:20:00;;;;;;;5.15;3.55;;;;;;;21.82;69.57;99780.91;4139144;28;20132;-71
2023/09/18 03:22:04;;;;;;;7.07;3.95;;;;;;;21.69;70.60;99791.16;4140870;28;20133;-71
2023/09/18 03:24:08;;;;;;;8.77;3.75;;;;;;;21.67;71.16;99798.28;4139581;28;20046;-70
2023/09/18 03:26:11;;;;;;;5.70;3.90;;;;;;;21.59;71.06;99791.53;4143602;28;20072;-70
2023/09/18 03:28:13;;;;;;;6.20;3.70;;;;;;;21.63;71.11;99799.34;4139029;28;20045;-70
2023/09/18 03:30:17;;;;;;;6.82;3.67;;;;;;;21.59;70.89;99796.81;4141612;28;20552;-71
2023/09/18 03:32:20;;;;;;;6.75;3.85;;;;;;;21.58;71.15;99795.13;4138904;28;20037;-70
2023/09/18 03:34:26;;;;;;;7.50;4.43;;;;;;;21.73;71.71;99795.38;4138029;28;20058;-71
2023/09/18 03:36:30;;;;;;;6.60;3.47;;;;;;;21.67;71.34;99793.88;4127207;28;20434;-70
2023/09/18 03:38:35;;;;;;;6.88;3.45;;;;;;;21.56;71.65;99790.81;4142004;28;20046;-70
2023/09/18 03:40:38;;;;;;;5.75;3.63;;;;;;;21.52;71.96;99800.63;4122372;28;20042;-71
2023/09/18 03:42:41;;;;;;;7.97;3.47;;;;;;;21.51;72.45;99820.09;4140479;28;20127;-71
2023/09/18 03:44:44;;;;;;;6.50;3.83;;;;;;;21.49;73.00;99813.97;4138021;28;20125;-72
2023/09/18 03:46:48;;;;;;;6.27;4.20;;;;;;;21.52;71.87;99816.50;4154338;28;20125;-71
2023/09/18 03:48:51;;;;;;;9.95;3.30;;;;;;;21.45;71.75;99820.31;4142135;28;20084;-71
2023/09/18 03:50:54;;;;;;;7.82;4.25;;;;;;;21.53;71.28;99820.88;4120752;28;20481;-70
2023/09/18 03:52:59;;;;;;;11.27;4.63;;;;;;;21.51;70.80;99835.97;4139080;28;20066;-72
2023/09/18 03:55:02;;;;;;;5.85;3.50;;;;;;;21.43;70.40;99840.66;4141170;28;20117;-72
2023/09/18 03:57:06;;;;;;;6.95;4.03;;;;;;;21.36;69.42;99841.84;4143724;28;20038;-72
2023/09/18 03:59:09;;;;;;;12.30;3.65;;;;;;;21.43;68.41;99843.31;4138988;28;20038;-71
2023/09/18 04:01:12;;;;;;;13.88;4.78;;;;;;;21.40;67.66;99843.44;4140260;28;20100;-71
2023/09/18 04:03:14;;;;;;;11.27;4.10;;;;;;;;;;4140405;28;20046;-72
2023/09/18 04:05:18;;;;;;;11.57;3.30;;;;;;;21.57;67.22;99838.34;4138660;28;20050;-70
2023/09/18 04:07:22;;;;;;;15.15;3.63;;;;;;;21.53;67.10;99828.81;4137755;28;20070;-71
2023/09/18 04:09:25;;;;;;;14.18;3.70;;;;;;;21.60;67.00;99818.84;4144056;28;20416;-71
2023/09/18 04:11:32;;;;;;;10.05;3.78;;;;;;;21.63;67.45;99799.34;4141332;28;20038;-72
2023/09/18 04:13:35;;;;;;;14.55;3.88;;;;;;;21.57;67.94;99817.19;4139107;28;20048;-71
2023/09/18 04:15:38;;;;;;;15.80;4.70;;;;;;;21.55;68.28;99797.88;4139236;28;20038;-71
2023/09/18 04:17:42;;;;;;;16.27;4.45;;;;;;;21.66;68.37;99797.44;4140638;28;20153;-72
2023/09/18 04:19:45;;;;;;;13.48;4.05;;;;;;;21.61;68.67;99800.28;4138440;28;20544;-71
2023/09/18 04:21:48;;;;;;;11.68;3.90;;;;;;;21.57;69.51;99788.09;4140370;28;20428;-72
2023/09/18 04:23:57;;;;;;;16.40;4.85;;;;;;;21.53;69.31;99775.91;4141857;28;20596;-72
2023/09/18 04:26:01;;;;;;;21.63;4.63;;;;;;;21.55;69.22;99775.84;4150582;28;20501;-73
2023/09/18 04:28:04;;;;;;;11.70;3.75;;;;;;;21.40;69.99;99772.03;4144186;28;20049;-71
2023/09/18 04:30:09;;;;;;;14.93;4.55;;;;;;;21.30;70.19;99774.19;4143309;28;20049;-71
2023/09/18 04:32:12;;;;;;;15.52;4.18;;;;;;;21.37;70.18;99751.88;4130493;28;20127;-71
2023/09/18 04:34:15;;;;;;;15.85;4.32;;;;;;;21.35;70.43;99750.19;4142628;28;20040;-71
2023/09/18 04:36:18;;;;;;;11.48;4.00;;;;;;;21.37;70.18;99732.50;4142174;28;20493;-71
2023/09/18 04:38:20;;;;;;;13.20;4.13;;;;;;;21.39;69.88;99731.53;4146960;28;20516;-70
2023/09/18 04:40:24;;;;;;;10.20;3.25;;;;;;;21.22;70.39;99756.00;4144101;28;20042;-70
2023/09/18 04:42:29;;;;;;;13.85;3.45;;;;;;;21.10;70.98;99770.59;4145077;28;20046;-70
2023/09/18 04:44:32;;;;;;;14.38;4.38;;;;;;;21.12;71.23;99761.75;4143985;28;20053;-70
2023/09/18 04:46:34;;;;;;;20.45;5.50;;;;;;;21.24;71.20;99764.72;4140229;28;20401;-70
2023/09/18 04:48:38;;;;;;;10.10;4.28;;;;;;;21.22;71.29;99776.31;4144269;28;20045;-70
2023/09/18 04:50:41;;;;;;;13.00;5.18;;;;;;;21.22;71.16;99757.81;4150122;28;20516;-70
2023/09/18 04:52:44;;;;;;;13.38;3.70;;;;;;;21.13;71.07;99758.16;4159026;28;20452;-70
2023/09/18 04:54:50;;;;;;;15.07;4.25;;;;;;;21.19;71.32;99742.94;4143810;28;20046;-70
2023/09/18 04:56:58;;;;;;;12.20;4.20;;;;;;;21.15;71.49;99745.75;4141848;28;20093;-70
2023/09/18 04:59:03;;;;;;;13.32;3.42;;;;;;;21.09;71.86;99752.16;4140215;28;20035;-70
2023/09/18 05:01:06;;;;;;;10.75;3.15;;;;;;;21.08;72.00;99758.34;4147040;28;20128;-70
2023/09/18 05:03:13;;;;;;;11.15;3.53;;;;;;;21.10;72.04;99759.19;4158823;28;20650;-71
2023/09/18 05:05:17;;;;;;;15.90;3.60;;;;;;;21.07;71.72;99767.19;4139620;28;20128;-71
2023/09/18 05:07:21;;;;;;;12.02;3.35;;;;;;;21.01;71.92;99786.84;4143692;28;20042;-71
2023/09/18 05:09:24;;;;;;;16.40;3.97;;;;;;;21.03;72.14;99781.47;4143927;28;20281;-71
2023/09/18 05:11:27;;;;;;;9.43;3.30;;;;;;;21.04;72.15;99785.81;4157953;28;20029;-71
2023/09/18 05:13:30;;;;;;;12.40;3.50;;;;;;;21.11;71.72;99779.38;4142987;28;20073;-71
2023/09/18 05:15:34;;;;;;;12.90;3.72;;;;;;;20.99;72.28;99772.81;4143844;28;20057;-71
2023/09/18 05:17:42;;;;;;;;;;;;;;;20.93;72.27;99784.47;4141819;28;20533;-71
2023/09/18 05:19:45;;;;;;;11.65;3.03;;;;;;;20.94;72.44;99780.06;4143655;28;19976;-71
2023/09/18 05:21:48;;;;;;;15.45;4.80;;;;;;;20.95;72.62;99794.13;4143115;28;20128;-71
2023/09/18 05:23:53;;;;;;;9.75;3.58;;;;;;;20.93;72.79;99816.19;4142800;28;20046;-71
2023/09/18 05:25:56;;;;;;;10.25;3.42;;;;;;;20.86;72.88;99814.69;4140733;28;20040;-71
2023/09/18 05:27:59;;;;;;;14.10;4.05;;;;;;;20.84;73.32;99824.47;4143406;28;20038;-72
2023/09/18 05:30:03;;;;;;;10.03;3.90;;;;;;;20.85;73.39;99815.63;4139455;28;20042;-72
2023/09/18 05:32:07;;;;;;;8.03;3.17;;;;;;;20.91;73.14;99817.19;4146467;28;20065;-72
2023/09/18 05:34:10;;;;;;;10.57;3.58;;;;;;;20.91;72.99;99833.03;4142122;28;20038;-72
2023/09/18 05:36:14;;;;;;;11.30;4.10;;;;;;;20.92;72.93;99826.81;4141386;28;20493;-71
2023/09/18 05:38:17;;;;;;;10.20;2.83;;;;;;;20.93;72.86;99824.09;4145523;28;20049;-72
2023/09/18 05:40:20;;;;;;;8.33;2.73;;;;;;;20.81;73.35;99827.25;4142105;28;20041;-70
2023/09/18 05:42:22;;;;;;;10.18;3.40;;;;;;;20.91;73.10;99835.69;4142191;28;20690;-71
2023/09/18 05:44:25;;;;;;;8.50;3.05;;;;;;;20.92;73.16;99842.66;4134261;28;20073;-69
2023/09/18 05:46:28;;;;;;;11.57;3.50;;;;;;;20.88;73.13;99836.66;4143037;28;20042;-70
2023/09/18 05:48:32;;;;;;;11.85;3.20;;;;;;;20.89;73.44;99832.22;4138798;28;20073;-70
2023/09/18 05:50:35;;;;;;;;;;;;;;;20.88;73.15;99820.81;4146806;28;20038;-69
2023/09/18 05:52:39;;;;;;;9.73;3.88;;;;;;;20.96;72.76;99815.22;4141452;28;19925;-70
2023/09/18 05:54:42;;;;;;;15.98;4.45;;;;;;;20.89;73.11;99795.22;4142564;28;20042;-70
2023/09/18 05:56:45;;;;;;;15.98;3.83;;;;;;;20.90;72.98;99787.25;4145284;28;20473;-69
2023/09/18 05:58:48;;;;;;;14.45;4.57;;;;;;;20.97;72.75;99782.59;4141946;28;20037;-71
2023/09/18 06:00:51;;;;;;;11.15;3.83;;;;;;;20.94;72.62;99793.28;4143504;28;20042;-70
2023/09/18 06:02:54;;;;;;;8.65;3.22;;;;;;;20.87;73.50;99823.50;4139022;28;20120;-70
2023/09/18 06:05:00;;;;;;;9.40;3.42;;;;;;;20.87;73.16;99824.34;4141657;28;20436;-70
2023/09/18 06:07:04;;;;;;;12.25;3.40;;;;;;;20.93;73.11;99829.38;4142788;28;20038;-69
2023/09/18 06:09:06;;;;;;;6.38;2.85;;;;;;;20.88;73.54;99820.81;4143334;28;20034;-69
2023/09/18 06:11:09;;;;;;;11.82;3.88;;;;;;;20.92;73.35;99816.25;4140919;28;20041;-69
2023/09/18 06:13:12;;;;;;;15.15;3.88;;;;;;;21.00;72.65;99816.81;4142273;28;20030;-69
2023/09/18 06:15:15;;;;;;;9.15;3.22;;;;;;;20.92;73.15;99819.75;4141194;28;20039;-69
2023/09/18 06:17:18;;;;;;;10.38;3.42;;;;;;;20.86;73.67;99822.63;4142705;28;20108;-69
2023/09/18 06:19:21;;;;;;;16.80;4.55;;;;;;;20.97;73.17;99829.25;4144247;28;20050;-69
2023/09/18 06:21:25;;;;;;;9.57;3.40;;;;;;;20.88;73.36;99823.44;4140187;28;20092;-69
2023/09/18 06:23:28;;;;;;;10.07;3.50;;;;;;;20.84;73.65;99832.41;4142033;28;20069;-70
2023/09/18 06:25:32;;;;;;;10.90;3.38;;;;;;;20.83;73.84;99835.94;4142853;28;20062;-69
2023/09/18 06:27:36;;;;;;;9.05;2.67;;;;;;;20.86;73.57;99841.13;4138837;28;20062;-69
2023/09/18 06:29:39;;;;;;;;;;;;;;;20.71;73.89;99842.56;4140206;28;20085;-70
2023/09/18 06:31:43;;;;;;;14.48;4.18;;;;;;;20.78;73.94;99840.56;4142977;28;20411;-70
2023/09/18 06:33:46;;;;;;;11.88;3.38;;;;;;;20.88;73.78;99846.34;4143802;28;20036;-70
2023/09/18 06:35:51;;;;;;;11.38;3.75;;;;;;;20.92;73.45;99859.41;4143437;28;20037;-70
2023/09/18 06:37:58;;;;;;;10.38;3.72;;;;;;;20.93;73.58;99861.09;4134931;28;20031;-70
2023/09/18 06:40:03;;;;;;;12.98;3.72;;;;;;;20.96;73.54;99854.00;4145183;28;20107;-70
2023/09/18 06:42:06;;;;;;;9.88;3.00;;;;;;;21.03;73.04;99868.69;4142207;28;20046;-70
2023/09/18 06:44:08;;;;;;;18.67;4.20;;;;;;;21.14;72.53;99855.91;4138917;28;20122;-70
2023/09/18 06:46:12;;;;;;;11.98;3.58;;;;;;;21.01;72.33;99857.31;4145284;28;20042;-70
2023/09/18 06:48:16;;;;;;;13.93;2.95;;;;;;;21.13;72.12;99875.34;4135488;28;20030;-70
2023/09/18 06:50:20;;;;;;;14.68;3.42;;;;;;;21.14;72.10;99881.47;4141121;28;20136;-70
2023/09/18 06:52:23;;;;;;;15.25;2.80;;;;;;;21.07;71.73;99899.34;4143499;28;20069;-70
2023/09/18 06:54:27;;;;;;;6.68;2.15;;;;;;;21.08;71.82;99904.59;4141074;28;20040;-70
2023/09/18 06:56:30;;;;;;;7.95;2.17;;;;;;;21.15;70.70;99899.06;4137454;28;20145;-70
2023/09/18 06:58:33;;;;;;;6.35;2.42;;;;;;;21.08;70.56;99896.69;4135954;28;20041;-69
2023/09/18 07:00:36;;;;;;;6.50;2.65;;;;;;;21.19;70.17;99890.13;4139408;28;20049;-69
2023/09/18 07:02:39;;;;;;;7.50;2.70;;;;;;;21.16;69.90;99882.28;4138635;28;20038;-60
2023/09/18 07:04:45;;;;;;;6.03;1.92;;;;;;;21.19;69.76;99890.13;4135387;28;20045;-61
2023/09/18 07:06:49;;;;;;;8.40;2.55;;;;;;;21.20;69.48;99900.63;4139424;28;20047;-61
2023/09/18 07:08:53;;;;;;;9.18;2.00;;;;;;;21.16;69.27;99914.00;4173070;22;20069;-61
2023/09/18 07:10:57;;;;;;;11.20;2.60;;;;;;;21.22;68.95;99919.91;4161901;28;20917;-60
2023/09/18 07:13:00;;;;;;;10.93;2.45;;;;;;;21.27;68.96;99912.69;4160707;28;20057;-60
2023/09/18 07:15:04;;;;;;;9.10;1.75;;;;;;;21.22;68.63;99919.91;4161830;28;20045;-61
2023/09/18 07:17:07;;;;;;;;;;;;;;;21.20;69.06;99900.63;4162001;28;20554;-60
2023/09/18 07:19:11;;;;;;;9.07;2.30;;;;;;;21.21;69.11;99912.03;4177429;28;19921;-61
2023/09/18 07:21:14;;;;;;;8.13;1.75;;;;;;;21.33;68.82;99910.69;4178436;28;20404;-64
2023/09/18 07:23:17;;;;;;;6.93;1.90;;;;;;;21.37;68.42;99912.31;4178245;28;20041;-61
2023/09/18 07:25:20;;;;;;;6.60;1.80;;;;;;;21.39;68.47;99923.69;4178074;28;20126;-60
2023/09/18 07:27:24;;;;;;;8.98;2.05;;;;;;;21.54;68.12;99912.53;4177018;28;20481;-61
2023/09/18 07:29:27;;;;;;;7.43;1.70;;;;;;;21.49;67.79;99916.25;4177799;28;20033;-62
2023/09/18 07:31:30;;;;;;;6.38;1.70;;;;;;;21.35;68.04;99924.72;4178145;28;20567;-60
2023/09/18 07:33:33;;;;;;;6.78;2.13;;;;;;;21.38;68.14;99920.19;4178022;28;20037;-62
2023/09/18 07:35:36;;;;;;;10.50;2.15;;;;;;;21.32;68.48;99914.25;4178471;28;20055;-63
2023/09/18 07:37:39;;;;;;;7.13;2.20;;;;;;;21.38;68.57;99921.97;4178733;28;20037;-63
2023/09/18 07:39:43;;;;;;;7.70;2.05;;;;;;;21.33;68.67;99911.56;4177740;28;20063;-61
2023/09/18 07:41:47;;;;;;;8.40;2.10;;;;;;;21.50;68.22;99912.69;4177741;28;20037;-61
2023/09/18 07:43:51;;;;;;;10.82;2.78;;;;;;;21.49;68.24;99916.25;4178498;28;20295;-62
2023/09/18 07:45:54;;;;;;;11.85;2.25;;;;;;;21.37;68.29;99920.25;4177957;28;20044;-60
2023/09/18 07:47:57;;;;;;;9.00;1.80;;;;;;;21.46;68.21;99925.16;4178241;28;20574;-60
2023/09/18 07:50:00;;;;;;;7.82;2.45;;;;;;;21.46;68.41;99922.50;4178165;28;20044;-58
2023/09/18 07:52:04;;;;;;;8.60;1.95;;;;;;;21.36;68.62;99942.31;4178634;28;20035;-59
2023/09/18 07:54:07;;;;;;;6.72;1.80;;;;;;;21.35;68.58;99935.28;4173827;28;20449;-60
2023/09/18 07:56:11;;;;;;;6.80;2.17;;;;;;;21.27;69.08;99940.88;4177897;28;20040;-60
2023/09/18 07:58:13;;;;;;;9.98;2.55;;;;;;;21.17;69.18;99937.72;4175893;28;20102;-60
2023/09/18 08:00:19;;;;;;;4.68;1.58;;;;;;;21.17;69.35;99950.94;4178377;28;20029;-59
2023/09/18 08:02:22;;;;;;;6.82;1.83;;;;;;;21.15;69.50;99947.50;4176500;28;20037;-59
2023/09/18 08:04:25;;;;;;;9.82;2.28;;;;;;;21.12;69.61;99947.63;4177380;28;20154;-58
2023/09/18 08:06:28;;;;;;;9.82;2.10;;;;;;;21.12;69.93;99944.13;4177570;28;20037;-61
2023/09/18 08:08:33;;;;;;;10.48;2.00;;;;;;;21.25;69.66;99940.09;4177562;28;20061;-59
2023/09/18 08:10:37;;;;;;;7.88;1.98;;;;;;;21.23;69.51;99947.19;4178923;28;20048;-61
2023/09/18 08:12:40;;;;;;;;;;;;;;;21.19;69.67;99949.13;4180874;28;20049;-60
2023/09/18 08:14:43;;;;;;;8.20;2.00;;;;;;;21.21;69.57;99947.25;4180849;28;20339;-60
2023/09/18 08:16:47;;;;;;;10.43;2.17;;;;;;;21.34;68.92;99949.44;4180507;28;20033;-60
2023/09/18 08:18:50;;;;;;;3.50;1.30;;;;;;;21.16;69.27;99937.78;4181555;28;20060;-58
2023/09/18 08:20:54;;;;;;;5.75;2.03;;;;;;;21.15;69.48;99944.00;4176877;28;20045;-60
2023/09/18 08:22:56;;;;;;;7.20;1.88;;;;;;;21.23;69.21;99933.97;4180816;28;20037;-58
2023/09/18 08:25:00;;;;;;;5.82;1.85;;;;;;;21.25;69.34;99934.81;4180997;28;20131;-58
2023/09/18 08:27:04;;;;;;;8.57;1.80;;;;;;;21.24;69.29;99938.34;4180604;28;20129;-59
2023/09/18 08:29:06;;;;;;;9.85;1.85;;;;;;;21.18;69.24;99935.97;4181735;28;20044;-60
2023/09/18 08:31:09;;;;;;;6.38;1.80;;;;;;;21.08;69.71;99933.69;4176175;28;20041;-59
2023/09/18 08:33:14;;;;;;;7.13;1.75;;;;;;;21.19;69.68;99933.25;4179130;28;20068;-61
2023/09/18 08:35:15;;;;;;;;;;;;;;;21.17;69.56;99928.94;4180211;28;20043;-65
2023/09/18 08:37:18;;;;;;;4.32;1.60;;;;;;;21.21;69.42;99926.13;4180569;28;19925;-62
2023/09/18 08:39:21;;;;;;;6.88;2.05;;;;;;;21.19;69.26;99914.75;4181198;28;20037;-64
2023/09/18 08:41:28;;;;;;;8.80;1.75;;;;;;;21.23;69.30;99937.50;4180330;28;20048;-61
2023/09/18 08:43:32;;;;;;;9.50;2.33;;;;;;;21.41;68.81;99924.50;4180076;28;20060;-61
2023/09/18 08:45:41;;;;;;;6.68;2.08;;;;;;;21.42;68.34;99918.25;4178810;28;20047;-65
2023/09/18 08:47:44;;;;;;;6.13;1.65;;;;;;;21.17;69.02;99908.63;4177567;28;20037;-61
2023/09/18 08:49:52;;;;;;;3.83;1.65;;;;;;;21.20;69.26;99913.84;4179879;28;20493;-60
2023/09/18 08:51:56;;;;;;;7.05;1.60;;;;;;;21.27;69.15;99909.16;4175049;28;20124;-59
2023/09/18 08:53:59;;;;;;;6.20;1.67;;;;;;;21.26;69.23;99916.25;4177625;28;20047;-59
2023/09/18 08:56:04;;;;;;;7.47;1.85;;;;;;;21.31;69.05;99907.28;4191516;28;20466;-60
2023/09/18 08:58:08;;;;;;;5.60;1.52;;;;;;;21.32;69.08;99924.84;4180502;28;20040;-59
2023/09/18 09:00:16;;;;;;;5.00;1.80;;;;;;;21.24;69.25;99928.63;4177377;28;20041;-59
2023/09/18 09:02:20;;;;;;;5.03;1.60;;;;;;;21.23;69.43;99926.94;4178376;28;20049;-59
2023/09/18 09:04:25;;;;;;;4.68;1.85;;;;;;;21.35;69.35;99930.88;4178267;28;20158;-57
2023/09/18 09:06:30;;;;;;;6.85;2.05;;;;;;;21.40;69.16;99936.00;4180365;28;20139;-60
2023/09/18 09:08:36;;;;;;;4.72;1.45;;;;;;;21.42;69.00;99931.50;4179364;28;20029;-59
2023/09/18 09:10:39;;;;;;;4.68;1.45;;;;;;;21.50;68.74;99923.28;4174572;28;20064;-60
2023/09/18 09:12:58;;;;;;;5.40;1.40;;;;;;;21.50;68.80;99941.78;4179094;28;20032;-58
2023/09/18 09:15:04;;;;;;;5.10;1.73;;;;;;;21.56;68.82;99939.78;4177386;28;20120;-59
2023/09/18 09:17:07;;;;;;;8.93;2.05;;;;;;;21.57;68.65;99949.44;4177052;28;20041;-59
2023/09/18 09:19:10;;;;;;;6.63;1.75;;;;;;;21.63;68.39;99950.97;4180078;28;20508;-59
2023/09/18 09:21:13;;;;;;;6.47;1.85;;;;;;;21.58;68.48;99964.41;4175643;28;20140;-64
2023/09/18 09:23:18;;;;;;;6.20;1.88;;;;;;;21.69;68.39;99971.06;4180042;28;20040;-63
2023/09/18 09:25:26;;;;;;;4.10;1.70;;;;;;;21.63;68.19;99980.09;4180502;28;20098;-61
2023/09/18 09:27:29;;;;;;;6.53;1.60;;;;;;;21.66;67.86;99985.25;4179190;28;20041;-60
2023/09/18 09:29:32;;;;;;;10.40;1.60;;;;;;;21.57;68.05;99983.81;4179891;28;20472;-61
2023/09/18 09:31:37;;;;;;;4.65;1.42;;;;;;;21.48;68.63;99983.28;4179936;28;20492;-60
2023/09/18 09:33:51;;;;;;;7.57;1.88;;;;;;;21.48;68.51;99983.28;4180004;28;20037;-60
2023/09/18 09:35:54;;;;;;;4.78;1.73;;;;;;;21.54;68.59;99978.66;4177624;28;20748;-59
2023/09/18 09:38:02;;;;;;;5.68;1.55;;;;;;;21.41;68.87;99980.03;4179087;28;20045;-59
2023/09/18 09:40:09;;;;;;;6.40;1.85;;;;;;;21.52;68.71;99990.22;4179366;28;20041;-59
2023/09/18 09:42:12;;;;;;;6.28;1.48;;;;;;;21.57;68.80;99986.47;4178449;28;20029;-59
2023/09/18 09:44:15;;;;;;;5.95;1.70;;;;;;;21.63;68.72;99982.72;4179575;28;20417;-59